createdAt,value
2022-09-29T00:00:29.747Z,14.10
2022-09-29T00:01:29.811Z,15.80
2022-09-29T00:02:29.750Z,12.50
2022-09-29T00:03:29.745Z,14.40
2022-09-29T00:04:29.700Z,14.10
2022-09-29T00:05:29.704Z,15.50
2022-09-29T00:06:29.694Z,13.10
2022-09-29T00:07:29.696Z,11.90
2022-09-29T00:08:29.682Z,13.20
2022-09-29T00:09:29.664Z,12.30
2022-09-29T00:10:29.655Z,13.30
2022-09-29T00:11:29.664Z,12.50
2022-09-29T00:12:29.634Z,11.50
2022-09-29T00:13:29.618Z,12.00
2022-09-29T00:14:29.610Z,11.40
2022-09-29T00:15:29.621Z,12.70
2022-09-29T00:16:29.696Z,11.50
2022-09-29T00:17:29.579Z,11.60
2022-09-29T00:18:29.576Z,14.30
2022-09-29T00:19:29.558Z,12.90
2022-09-29T00:20:29.554Z,9.80
2022-09-29T00:21:29.547Z,15.00
2022-09-29T00:22:29.554Z,12.90
2022-09-29T00:23:29.521Z,12.20
2022-09-29T00:24:29.518Z,12.00
2022-09-29T00:25:29.515Z,10.30
2022-09-29T00:26:29.490Z,13.20
2022-09-29T00:27:29.517Z,12.40
2022-09-29T00:28:29.473Z,12.00
2022-09-29T00:29:29.493Z,11.60
2022-09-29T00:30:29.452Z,10.00
2022-09-29T00:31:29.471Z,10.30
2022-09-29T00:32:29.444Z,9.80
2022-09-29T00:33:29.434Z,14.80
2022-09-29T00:34:29.428Z,11.40
2022-09-29T00:35:29.417Z,10.80
2022-09-29T00:36:29.406Z,10.00
2022-09-29T00:37:29.386Z,10.50
2022-09-29T00:38:29.369Z,12.60
2022-09-29T00:39:29.371Z,11.30
2022-09-29T00:40:29.433Z,10.40
2022-09-29T00:41:29.363Z,12.00
2022-09-29T00:42:29.337Z,11.80
2022-09-29T00:43:29.313Z,9.70
2022-09-29T00:44:29.322Z,10.20
2022-09-29T00:45:29.353Z,12.30
2022-09-29T00:46:29.291Z,11.30
2022-09-29T00:47:29.283Z,9.60
2022-09-29T00:48:29.295Z,10.70
2022-09-29T00:49:29.297Z,11.70
2022-09-29T00:50:29.255Z,13.10
2022-09-29T00:51:29.243Z,10.20
2022-09-29T00:52:29.238Z,8.90
2022-09-29T00:53:30.223Z,10.00
2022-09-29T00:54:29.223Z,9.80
2022-09-29T00:55:29.203Z,15.00
2022-09-29T00:56:29.195Z,11.20
2022-09-29T00:57:29.221Z,12.00
2022-09-29T00:58:29.191Z,12.80
2022-09-29T00:59:29.157Z,10.10
2022-09-29T01:00:29.202Z,9.70
2022-09-29T01:01:29.139Z,10.90
2022-09-29T01:02:29.169Z,13.60
2022-09-29T01:03:29.150Z,14.40
2022-09-29T01:04:29.108Z,15.20
2022-09-29T01:05:29.107Z,13.60
2022-09-29T01:06:29.112Z,16.10
2022-09-29T01:07:29.083Z,17.30
2022-09-29T01:08:29.074Z,15.20
2022-09-29T01:09:29.093Z,18.00
2022-09-29T01:10:29.056Z,16.40
2022-09-29T01:11:29.053Z,15.90
2022-09-29T01:12:29.036Z,14.40
2022-09-29T01:13:29.018Z,16.50
2022-09-29T01:14:29.040Z,15.60
2022-09-29T01:15:29.008Z,12.20
2022-09-29T01:16:29.111Z,12.20
2022-09-29T01:17:29.012Z,11.60
2022-09-29T01:18:28.998Z,11.30
2022-09-29T01:19:28.965Z,12.10
2022-09-29T01:20:28.977Z,11.70
2022-09-29T01:21:28.948Z,11.20
2022-09-29T01:22:28.936Z,12.00
2022-09-29T01:23:28.934Z,15.30
2022-09-29T01:24:28.943Z,12.40
2022-09-29T01:25:28.910Z,15.30
2022-09-29T01:26:28.923Z,13.40
2022-09-29T01:27:28.897Z,11.00
2022-09-29T01:28:28.891Z,11.20
2022-09-29T01:29:28.871Z,11.80
2022-09-29T01:30:28.872Z,11.10
2022-09-29T01:31:28.938Z,11.00
2022-09-29T01:32:28.847Z,12.40
2022-09-29T01:33:28.833Z,11.00
2022-09-29T01:34:28.841Z,10.90
2022-09-29T01:35:28.871Z,13.30
2022-09-29T01:36:28.818Z,10.00
2022-09-29T01:37:28.801Z,11.20
2022-09-29T01:38:28.793Z,11.00
2022-09-29T01:39:28.778Z,14.50
2022-09-29T01:40:28.855Z,11.30
2022-09-29T01:41:28.765Z,13.20
2022-09-29T01:42:28.761Z,12.30
2022-09-29T01:43:28.770Z,12.30
2022-09-29T01:44:28.749Z,15.60
2022-09-29T01:45:28.766Z,15.40
2022-09-29T01:46:28.711Z,13.30
2022-09-29T01:47:28.714Z,17.20
2022-09-29T01:48:28.725Z,14.80
2022-09-29T01:49:28.698Z,14.90
2022-09-29T01:50:28.687Z,17.40
2022-09-29T01:51:28.670Z,16.10
2022-09-29T01:52:28.670Z,18.30
2022-09-29T01:53:28.661Z,20.50
2022-09-29T01:54:28.660Z,17.40
2022-09-29T01:55:28.635Z,17.10
2022-09-29T01:56:28.634Z,16.30
2022-09-29T01:57:28.620Z,17.60
2022-09-29T01:58:28.632Z,25.30
2022-09-29T01:59:28.604Z,18.10
2022-09-29T02:00:29.611Z,15.70
2022-09-29T02:01:28.587Z,16.00
2022-09-29T02:02:28.636Z,14.60
2022-09-29T02:03:28.582Z,14.10
2022-09-29T02:04:28.549Z,12.80
2022-09-29T02:05:28.564Z,12.30
2022-09-29T02:06:28.544Z,14.20
2022-09-29T02:07:28.529Z,14.70
2022-09-29T02:08:28.510Z,13.90
2022-09-29T02:09:28.500Z,15.70
2022-09-29T02:11:00.408Z,23.80
2022-09-29T02:11:28.476Z,18.20
2022-09-29T02:12:28.468Z,19.10
2022-09-29T02:13:28.482Z,19.90
2022-09-29T02:14:28.475Z,17.20
2022-09-29T02:15:28.457Z,21.40
2022-09-29T02:16:28.482Z,21.30
2022-09-29T02:17:28.436Z,16.80
2022-09-29T02:18:28.434Z,16.80
2022-09-29T02:19:28.394Z,15.90
2022-09-29T02:20:28.402Z,20.00
2022-09-29T02:21:28.386Z,19.80
2022-09-29T02:22:28.396Z,17.90
2022-09-29T02:23:28.376Z,19.80
2022-09-29T02:24:28.349Z,20.50
2022-09-29T02:25:28.341Z,18.00
2022-09-29T02:26:28.333Z,15.40
2022-09-29T02:27:28.339Z,20.10
2022-09-29T02:28:28.317Z,14.80
2022-09-29T02:29:28.302Z,15.90
2022-09-29T02:30:28.295Z,16.40
2022-09-29T02:31:28.334Z,18.00
2022-09-29T02:32:28.297Z,15.00
2022-09-29T02:33:28.254Z,15.30
2022-09-29T02:34:28.252Z,25.40
2022-09-29T02:35:28.247Z,18.30
2022-09-29T02:36:28.245Z,19.00
2022-09-29T02:37:28.245Z,16.20
2022-09-29T02:38:28.231Z,21.10
2022-09-29T02:39:28.203Z,18.30
2022-09-29T02:40:28.272Z,121.70
2022-09-29T02:41:28.196Z,56.20
2022-09-29T02:42:28.198Z,37.10
2022-09-29T02:43:28.224Z,18.40
2022-09-29T02:44:28.156Z,19.50
2022-09-29T02:45:28.167Z,16.60
2022-09-29T02:46:28.164Z,22.10
2022-09-29T02:47:28.129Z,19.90
2022-09-29T02:48:28.121Z,20.30
2022-09-29T02:49:28.107Z,19.80
2022-09-29T02:50:28.091Z,17.90
2022-09-29T02:51:28.107Z,18.90
2022-09-29T02:52:28.083Z,24.30
2022-09-29T02:53:28.077Z,19.40
2022-09-29T02:54:28.053Z,33.20
2022-09-29T02:55:28.045Z,37.70
2022-09-29T02:56:28.070Z,22.70
2022-09-29T02:57:28.021Z,25.70
2022-09-29T02:58:28.016Z,25.90
2022-09-29T02:59:28.010Z,30.80
2022-09-29T03:00:28.000Z,24.00
2022-09-29T03:01:27.992Z,21.10
2022-09-29T03:02:28.011Z,25.90
2022-09-29T03:03:28.004Z,24.20
2022-09-29T03:04:27.952Z,29.10
2022-09-29T03:05:27.945Z,23.20
2022-09-29T03:06:27.929Z,30.30
2022-09-29T03:07:28.957Z,28.90
2022-09-29T03:08:27.923Z,20.40
2022-09-29T03:09:27.902Z,19.80
2022-09-29T03:10:30.185Z,20.60
2022-09-29T03:11:28.898Z,18.80
2022-09-29T03:12:27.889Z,19.30
2022-09-29T03:13:27.888Z,20.40
2022-09-29T03:14:27.853Z,18.20
2022-09-29T03:15:27.850Z,19.00
2022-09-29T03:16:27.898Z,18.40
2022-09-29T03:17:27.829Z,18.70
2022-09-29T03:18:27.842Z,19.80
2022-09-29T03:19:27.813Z,33.20
2022-09-29T03:20:27.801Z,16.20
2022-09-29T03:21:27.787Z,15.50
2022-09-29T03:22:27.777Z,12.60
2022-09-29T03:23:27.775Z,15.20
2022-09-29T03:24:27.762Z,21.00
2022-09-29T03:25:27.750Z,23.10
2022-09-29T03:26:27.733Z,18.40
2022-09-29T03:27:27.747Z,14.40
2022-09-29T03:28:27.735Z,15.50
2022-09-29T03:29:27.709Z,23.10
2022-09-29T03:30:27.701Z,15.30
2022-09-29T03:31:27.772Z,18.80
2022-09-29T03:32:27.681Z,19.40
2022-09-29T03:33:27.684Z,16.40
2022-09-29T03:34:27.662Z,15.80
2022-09-29T03:35:27.652Z,17.40
2022-09-29T03:36:27.654Z,26.90
2022-09-29T03:37:27.636Z,25.40
2022-09-29T03:38:27.640Z,24.00
2022-09-29T03:39:27.609Z,20.00
2022-09-29T03:40:27.657Z,18.70
2022-09-29T03:41:27.599Z,48.30
2022-09-29T03:42:27.585Z,77.70
2022-09-29T03:43:27.572Z,52.90
2022-09-29T03:44:27.567Z,35.50
2022-09-29T03:45:27.555Z,45.40
2022-09-29T03:46:27.545Z,49.40
2022-09-29T03:47:27.528Z,47.80
2022-09-29T03:48:27.557Z,83.40
2022-09-29T03:49:27.521Z,34.40
2022-09-29T03:50:27.506Z,44.40
2022-09-29T03:51:27.483Z,55.60
2022-09-29T03:52:27.475Z,43.90
2022-09-29T03:53:27.471Z,54.20
2022-09-29T03:54:27.470Z,24.70
2022-09-29T03:55:27.452Z,18.70
2022-09-29T03:56:27.447Z,20.20
2022-09-29T03:57:27.432Z,18.30
2022-09-29T03:58:27.414Z,24.00
2022-09-29T03:59:27.427Z,20.10
2022-09-29T04:00:27.395Z,24.50
2022-09-29T04:01:27.392Z,16.70
2022-09-29T04:02:27.408Z,20.00
2022-09-29T04:03:27.382Z,60.40
2022-09-29T04:04:27.360Z,46.80
2022-09-29T04:05:27.370Z,65.40
2022-09-29T04:06:27.339Z,46.90
2022-09-29T04:07:27.344Z,42.00
2022-09-29T04:08:27.319Z,32.30
2022-09-29T04:09:27.313Z,42.60
2022-09-29T04:10:27.318Z,34.10
2022-09-29T04:11:27.303Z,28.80
2022-09-29T04:12:27.274Z,20.40
2022-09-29T04:13:27.277Z,18.50
2022-09-29T04:14:27.278Z,18.60
2022-09-29T04:15:27.238Z,59.40
2022-09-29T04:16:27.263Z,58.70
2022-09-29T04:17:27.255Z,55.30
2022-09-29T04:18:27.206Z,21.70
2022-09-29T04:19:27.195Z,26.50
2022-09-29T04:20:27.198Z,34.20
2022-09-29T04:21:27.179Z,33.10
2022-09-29T04:22:27.194Z,18.00
2022-09-29T04:23:27.176Z,26.00
2022-09-29T04:24:27.149Z,63.10
2022-09-29T04:25:27.163Z,77.00
2022-09-29T04:26:27.124Z,75.40
2022-09-29T04:27:27.119Z,110.10
2022-09-29T04:28:27.134Z,90.30
2022-09-29T04:29:27.104Z,83.00
2022-09-29T04:30:27.172Z,35.60
2022-09-29T04:31:27.149Z,76.80
2022-09-29T04:32:27.074Z,71.30
2022-09-29T04:33:27.078Z,51.50
2022-09-29T04:34:27.056Z,31.80
2022-09-29T04:35:27.059Z,27.00
2022-09-29T04:36:27.038Z,20.70
2022-09-29T04:37:27.106Z,29.10
2022-09-29T04:38:27.044Z,24.00
2022-09-29T04:39:27.011Z,35.20
2022-09-29T04:40:27.025Z,26.20
2022-09-29T04:41:26.986Z,35.60
2022-09-29T04:42:26.970Z,28.80
2022-09-29T04:43:26.981Z,40.80
2022-09-29T04:44:26.959Z,23.50
2022-09-29T04:45:26.980Z,39.90
2022-09-29T04:46:26.936Z,33.20
2022-09-29T04:47:26.927Z,33.30
2022-09-29T04:48:26.932Z,30.50
2022-09-29T04:49:26.914Z,39.00
2022-09-29T04:50:27.921Z,27.10
2022-09-29T04:51:26.890Z,54.90
2022-09-29T04:52:26.873Z,30.50
2022-09-29T04:53:26.862Z,62.80
2022-09-29T04:54:26.862Z,60.40
2022-09-29T04:55:26.866Z,40.90
2022-09-29T04:56:26.854Z,41.10
2022-09-29T04:57:26.872Z,64.80
2022-09-29T04:58:26.820Z,65.00
2022-09-29T04:59:26.799Z,42.90
2022-09-29T05:00:26.800Z,80.00
2022-09-29T05:01:26.847Z,51.00
2022-09-29T05:02:26.978Z,40.20
2022-09-29T05:03:26.776Z,77.30
2022-09-29T05:04:26.758Z,48.90
2022-09-29T05:05:26.759Z,35.20
2022-09-29T05:06:26.744Z,49.70
2022-09-29T05:07:26.728Z,52.40
2022-09-29T05:08:26.741Z,45.90
2022-09-29T05:09:31.154Z,95.00
2022-09-29T05:10:28.696Z,88.20
2022-09-29T05:11:26.693Z,91.00
2022-09-29T05:12:26.675Z,76.40
2022-09-29T05:13:26.687Z,54.90
2022-09-29T05:14:26.667Z,78.30
2022-09-29T05:15:26.660Z,42.10
2022-09-29T05:16:26.680Z,86.40
2022-09-29T05:17:26.638Z,52.10
2022-09-29T05:18:26.629Z,43.40
2022-09-29T05:19:26.624Z,49.40
2022-09-29T05:20:30.760Z,44.10
2022-09-29T05:21:29.179Z,40.30
2022-09-29T05:22:27.587Z,46.80
2022-09-29T05:23:26.576Z,36.30
2022-09-29T05:24:26.638Z,34.80
2022-09-29T05:25:26.558Z,39.00
2022-09-29T05:26:26.554Z,55.20
2022-09-29T05:27:26.532Z,23.60
2022-09-29T05:28:26.525Z,29.60
2022-09-29T05:29:26.536Z,24.80
2022-09-29T05:30:26.500Z,50.70
2022-09-29T05:31:26.637Z,38.70
2022-09-29T05:32:26.483Z,29.60
2022-09-29T05:33:26.480Z,143.10
2022-09-29T05:34:26.461Z,93.50
2022-09-29T05:35:26.473Z,57.50
2022-09-29T05:36:26.448Z,49.10
2022-09-29T05:37:26.446Z,27.70
2022-09-29T05:38:26.429Z,43.40
2022-09-29T05:39:26.418Z,40.90
2022-09-29T05:40:26.453Z,45.20
2022-09-29T05:41:26.396Z,36.10
2022-09-29T05:42:26.384Z,64.20
2022-09-29T05:43:26.384Z,24.00
2022-09-29T05:44:26.366Z,23.90
2022-09-29T05:45:26.368Z,29.90
2022-09-29T05:46:26.379Z,33.90
2022-09-29T05:47:26.347Z,63.20
2022-09-29T05:48:26.337Z,42.60
2022-09-29T05:49:26.317Z,23.20
2022-09-29T05:50:26.315Z,41.40
2022-09-29T05:51:26.359Z,42.40
2022-09-29T05:52:26.295Z,37.90
2022-09-29T05:53:26.283Z,31.30
2022-09-29T05:54:26.278Z,43.80
2022-09-29T05:55:26.263Z,32.70
2022-09-29T05:56:26.259Z,52.60
2022-09-29T05:57:26.293Z,32.90
2022-09-29T05:58:26.251Z,23.70
2022-09-29T05:59:26.248Z,33.10
2022-09-29T06:00:26.229Z,63.80
2022-09-29T06:01:26.280Z,35.50
2022-09-29T06:02:26.351Z,18.60
2022-09-29T06:03:26.212Z,70.90
2022-09-29T06:04:26.210Z,61.20
2022-09-29T06:05:26.184Z,36.20
2022-09-29T06:06:26.165Z,29.80
2022-09-29T06:07:26.156Z,47.30
2022-09-29T06:08:26.167Z,40.20
2022-09-29T06:09:26.149Z,25.80
2022-09-29T06:10:26.206Z,32.40
2022-09-29T06:11:26.127Z,30.40
2022-09-29T06:12:26.106Z,23.40
2022-09-29T06:13:26.099Z,19.20
2022-09-29T06:14:26.122Z,26.40
2022-09-29T06:15:26.101Z,26.00
2022-09-29T06:16:26.109Z,22.10
2022-09-29T06:17:26.083Z,21.90
2022-09-29T06:18:26.036Z,24.60
2022-09-29T06:19:26.031Z,25.70
2022-09-29T06:20:26.016Z,21.60
2022-09-29T06:21:26.015Z,25.20
2022-09-29T06:22:26.008Z,20.00
2022-09-29T06:23:25.990Z,19.60
2022-09-29T06:24:26.013Z,18.40
2022-09-29T06:25:25.974Z,16.20
2022-09-29T06:26:25.962Z,17.40
2022-09-29T06:27:25.945Z,17.40
2022-09-29T06:28:25.936Z,17.80
2022-09-29T06:29:25.952Z,13.70
2022-09-29T06:30:25.924Z,15.70
2022-09-29T06:31:25.965Z,15.30
2022-09-29T06:32:25.905Z,15.60
2022-09-29T06:33:25.899Z,19.20
2022-09-29T06:34:25.880Z,18.80
2022-09-29T06:35:25.913Z,17.00
2022-09-29T06:36:25.871Z,25.10
2022-09-29T06:37:25.911Z,19.70
2022-09-29T06:38:25.853Z,20.00
2022-09-29T06:39:25.849Z,18.20
2022-09-29T06:40:25.917Z,22.80
2022-09-29T06:41:25.817Z,21.20
2022-09-29T06:42:25.830Z,33.80
2022-09-29T06:43:25.790Z,20.50
2022-09-29T06:44:25.799Z,20.30
2022-09-29T06:45:25.776Z,20.10
2022-09-29T06:46:25.761Z,16.40
2022-09-29T06:47:25.759Z,18.90
2022-09-29T06:48:25.763Z,20.80
2022-09-29T06:49:25.750Z,17.40
2022-09-29T06:50:25.755Z,17.40
2022-09-29T06:51:36.268Z,20.60
2022-09-29T06:52:29.977Z,14.50
2022-09-29T06:53:36.453Z,14.70
2022-09-29T06:54:26.706Z,16.50
2022-09-29T06:55:25.671Z,14.00
2022-09-29T06:56:25.671Z,14.30
2022-09-29T06:57:25.655Z,19.90
2022-09-29T06:58:25.644Z,15.20
2022-09-29T06:59:25.666Z,14.10
2022-09-29T07:00:25.632Z,14.80
2022-09-29T07:01:25.683Z,13.40
2022-09-29T07:02:25.738Z,12.50
2022-09-29T07:03:25.598Z,14.80
2022-09-29T07:04:25.584Z,12.70
2022-09-29T07:05:25.603Z,12.80
2022-09-29T07:06:25.563Z,13.10
2022-09-29T07:07:25.557Z,12.90
2022-09-29T07:08:25.537Z,13.70
2022-09-29T07:09:25.547Z,13.90
2022-09-29T07:10:25.546Z,12.10
2022-09-29T07:11:25.519Z,13.10
2022-09-29T07:12:25.523Z,12.50
2022-09-29T07:13:25.508Z,11.90
2022-09-29T07:14:25.499Z,15.30
2022-09-29T07:15:25.500Z,12.90
2022-09-29T07:16:25.575Z,14.10
2022-09-29T07:17:25.475Z,12.50
2022-09-29T07:18:25.444Z,15.50
2022-09-29T07:19:25.438Z,12.60
2022-09-29T07:20:25.420Z,12.50
2022-09-29T07:21:25.438Z,13.00
2022-09-29T07:22:25.418Z,11.50
2022-09-29T07:23:25.396Z,12.60
2022-09-29T07:24:25.417Z,11.60
2022-09-29T07:25:50.093Z,10.90
2022-09-29T07:26:27.377Z,11.40
2022-09-29T07:27:25.361Z,11.20
2022-09-29T07:28:25.354Z,11.60
2022-09-29T07:29:25.364Z,11.40
2022-09-29T07:30:34.907Z,11.30
2022-09-29T07:31:26.413Z,13.20
2022-09-29T07:32:28.386Z,10.80
2022-09-29T07:33:36.569Z,10.90
2022-09-29T07:34:26.309Z,11.10
2022-09-29T07:35:25.278Z,11.50
2022-09-29T07:36:25.291Z,9.70
2022-09-29T07:37:25.259Z,10.00
2022-09-29T07:38:25.251Z,11.40
2022-09-29T07:39:25.258Z,9.50
2022-09-29T07:40:25.316Z,9.60
2022-09-29T07:41:25.223Z,9.50
2022-09-29T07:42:25.231Z,9.50
2022-09-29T07:43:25.201Z,10.10
2022-09-29T07:44:25.206Z,10.10
2022-09-29T07:45:25.214Z,9.80
2022-09-29T07:46:25.272Z,9.20
2022-09-29T07:47:25.192Z,11.10
2022-09-29T07:48:29.170Z,11.80
2022-09-29T07:49:27.130Z,8.80
2022-09-29T07:50:25.129Z,9.60
2022-09-29T07:51:25.109Z,9.80
2022-09-29T07:52:25.134Z,9.40
2022-09-29T07:53:25.087Z,9.20
2022-09-29T07:54:29.343Z,14.40
2022-09-29T07:55:26.083Z,10.20
2022-09-29T07:56:25.094Z,9.60
2022-09-29T07:57:25.060Z,10.10
2022-09-29T07:58:25.076Z,10.20
2022-09-29T07:59:25.035Z,10.20
2022-09-29T08:00:25.035Z,9.70
2022-09-29T08:01:25.065Z,9.40
2022-09-29T08:02:25.067Z,9.70
2022-09-29T08:03:26.022Z,10.80
2022-09-29T08:04:24.996Z,10.10
2022-09-29T08:05:24.987Z,9.10
2022-09-29T08:06:24.995Z,9.30
2022-09-29T08:07:24.961Z,9.10
2022-09-29T08:08:24.963Z,8.90
2022-09-29T08:09:36.900Z,9.00
2022-09-29T08:10:53.836Z,8.60
2022-09-29T08:11:30.797Z,8.90
2022-09-29T08:12:35.823Z,8.70
2022-09-29T08:13:26.898Z,8.40
2022-09-29T08:14:24.900Z,8.40
2022-09-29T08:15:24.889Z,8.80
2022-09-29T08:16:24.903Z,8.80
2022-09-29T08:17:25.883Z,8.40
2022-09-29T08:18:24.874Z,8.50
2022-09-29T08:19:24.835Z,8.10
2022-09-29T08:20:24.841Z,7.90
2022-09-29T08:21:24.824Z,7.80
2022-09-29T08:22:24.844Z,8.60
2022-09-29T08:23:24.805Z,8.00
2022-09-29T08:24:24.789Z,8.70
2022-09-29T08:25:24.779Z,8.40
2022-09-29T08:26:38.706Z,8.60
2022-09-29T08:27:26.787Z,7.80
2022-09-29T08:28:31.620Z,7.90
2022-09-29T08:29:26.214Z,7.70
2022-09-29T08:30:24.739Z,7.80
2022-09-29T08:31:24.776Z,7.00
2022-09-29T08:32:24.753Z,6.70
2022-09-29T08:33:24.702Z,6.80
2022-09-29T08:34:24.696Z,5.90
2022-09-29T08:35:24.695Z,6.50
2022-09-29T08:36:24.670Z,6.00
2022-09-29T08:37:24.665Z,5.90
2022-09-29T08:38:24.678Z,6.10
2022-09-29T08:39:24.657Z,5.50
2022-09-29T08:40:24.717Z,6.40
2022-09-29T08:41:24.646Z,5.70
2022-09-29T08:42:24.617Z,7.00
2022-09-29T08:43:33.445Z,5.70
2022-09-29T08:44:36.812Z,6.00
2022-09-29T08:45:26.589Z,6.50
2022-09-29T08:46:34.495Z,6.30
2022-09-29T08:47:34.506Z,6.50
2022-09-29T08:48:26.586Z,6.70
2022-09-29T08:49:32.061Z,6.00
2022-09-29T08:50:26.558Z,6.10
2022-09-29T08:51:35.900Z,6.30
2022-09-29T08:52:26.518Z,5.40
2022-09-29T08:53:28.685Z,4.90
2022-09-29T08:54:35.603Z,5.00
2022-09-29T08:55:25.525Z,4.90
2022-09-29T08:56:24.483Z,4.60
2022-09-29T08:57:24.466Z,4.60
2022-09-29T08:58:24.476Z,4.30
2022-09-29T08:59:24.452Z,4.70
2022-09-29T09:00:24.455Z,4.50
2022-09-29T09:01:24.530Z,4.20
2022-09-29T09:02:24.470Z,4.20
2022-09-29T09:03:24.423Z,4.30
2022-09-29T09:04:24.392Z,4.30
2022-09-29T09:05:24.397Z,4.50
2022-09-29T09:07:24.365Z,4.50
2022-09-29T09:08:24.370Z,3.90
2022-09-29T09:09:24.356Z,4.00
2022-09-29T09:10:24.332Z,4.10
2022-09-29T09:11:24.340Z,3.40
2022-09-29T09:12:24.334Z,4.00
2022-09-29T09:13:24.315Z,8.30
2022-09-29T09:14:24.303Z,3.80
2022-09-29T09:15:24.273Z,4.40
2022-09-29T09:16:24.329Z,4.00
2022-09-29T09:17:24.286Z,5.00
2022-09-29T09:18:24.257Z,4.60
2022-09-29T09:19:24.260Z,4.70
2022-09-29T09:20:24.231Z,5.20
2022-09-29T09:21:24.229Z,6.00
2022-09-29T09:22:24.217Z,5.70
2022-09-29T09:23:24.205Z,5.20
2022-09-29T09:24:25.045Z,4.80
2022-09-29T09:25:25.207Z,5.10
2022-09-29T09:26:24.179Z,4.70
2022-09-29T09:27:24.162Z,4.90
2022-09-29T09:28:24.153Z,5.60
2022-09-29T09:29:24.149Z,6.40
2022-09-29T09:30:24.152Z,4.90
2022-09-29T09:31:24.122Z,5.00
2022-09-29T09:32:24.123Z,5.20
2022-09-29T09:33:30.867Z,5.00
2022-09-29T09:34:39.923Z,5.30
2022-09-29T09:35:26.114Z,5.20
2022-09-29T09:36:32.561Z,5.10
2022-09-29T09:37:26.075Z,5.40
2022-09-29T09:38:24.076Z,5.80
2022-09-29T09:39:24.065Z,4.70
2022-09-29T09:40:24.050Z,4.90
2022-09-29T09:41:24.039Z,5.40
2022-09-29T09:42:24.023Z,5.20
2022-09-29T09:43:24.007Z,4.50
2022-09-29T09:44:24.004Z,5.80
2022-09-29T09:45:24.009Z,5.60
2022-09-29T09:46:24.044Z,5.70
2022-09-29T09:47:23.967Z,5.00
2022-09-29T09:48:26.243Z,4.60
2022-09-29T09:49:25.948Z,4.30
2022-09-29T09:50:23.937Z,5.40
2022-09-29T09:51:23.946Z,5.60
2022-09-29T09:52:23.916Z,4.90
2022-09-29T09:53:23.900Z,4.40
2022-09-29T09:54:23.903Z,4.90
2022-09-29T09:55:23.897Z,4.80
2022-09-29T09:56:23.897Z,5.80
2022-09-29T09:57:23.898Z,6.90
2022-09-29T09:58:23.866Z,7.00
2022-09-29T09:59:23.853Z,4.90
2022-09-29T10:00:23.813Z,4.50
2022-09-29T10:01:23.924Z,5.70
2022-09-29T10:02:23.855Z,4.80
2022-09-29T10:03:23.838Z,4.10
2022-09-29T10:04:23.816Z,4.10
2022-09-29T10:05:24.789Z,4.70
2022-09-29T10:06:23.781Z,4.50
2022-09-29T10:07:23.775Z,4.30
2022-09-29T10:08:23.769Z,4.30
2022-09-29T10:09:23.852Z,4.30
2022-09-29T10:10:23.760Z,4.20
2022-09-29T10:11:23.749Z,4.20
2022-09-29T10:12:23.727Z,4.30
2022-09-29T10:13:23.717Z,5.00
2022-09-29T10:14:23.734Z,4.30
2022-09-29T10:15:23.731Z,5.10
2022-09-29T10:16:23.717Z,3.90
2022-09-29T10:17:23.685Z,4.40
2022-09-29T10:18:23.677Z,4.50
2022-09-29T10:19:23.663Z,3.90
2022-09-29T10:20:23.644Z,4.30
2022-09-29T10:21:23.657Z,4.20
2022-09-29T10:22:23.640Z,4.10
2022-09-29T10:23:23.615Z,4.20
2022-09-29T10:24:23.596Z,5.00
2022-09-29T10:25:23.591Z,5.40
2022-09-29T10:26:23.578Z,3.70
2022-09-29T10:27:23.603Z,3.80
2022-09-29T10:28:23.558Z,4.10
2022-09-29T10:29:23.548Z,3.60
2022-09-29T10:30:23.586Z,4.30
2022-09-29T10:31:23.788Z,4.00
2022-09-29T10:32:23.539Z,3.70
2022-09-29T10:33:23.529Z,3.50
2022-09-29T10:34:23.506Z,4.70
2022-09-29T10:35:23.483Z,4.50
2022-09-29T10:36:23.490Z,5.00
2022-09-29T10:37:23.476Z,4.40
2022-09-29T10:38:23.481Z,4.70
2022-09-29T10:39:23.475Z,4.40
2022-09-29T10:40:23.433Z,5.50
2022-09-29T10:41:23.434Z,4.10
2022-09-29T10:42:23.419Z,3.90
2022-09-29T10:43:23.413Z,3.70
2022-09-29T10:44:23.416Z,4.10
2022-09-29T10:45:23.413Z,3.50
2022-09-29T10:46:23.438Z,4.60
2022-09-29T10:47:23.362Z,3.60
2022-09-29T10:48:23.362Z,3.70
2022-09-29T10:49:23.340Z,4.20
2022-09-29T10:50:23.335Z,3.80
2022-09-29T10:51:23.325Z,4.00
2022-09-29T10:52:23.319Z,4.20
2022-09-29T10:53:23.319Z,3.50
2022-09-29T10:54:23.294Z,3.70
2022-09-29T10:55:23.286Z,3.40
2022-09-29T10:56:23.274Z,3.60
2022-09-29T10:57:23.285Z,3.30
2022-09-29T10:58:44.216Z,3.70
2022-09-29T10:59:25.247Z,4.80
2022-09-29T11:00:23.248Z,3.60
2022-09-29T11:01:23.276Z,3.40
2022-09-29T11:02:23.240Z,5.20
2022-09-29T11:03:23.219Z,3.60
2022-09-29T11:04:23.188Z,5.70
2022-09-29T11:05:23.200Z,3.50
2022-09-29T11:06:23.169Z,3.90
2022-09-29T11:07:23.153Z,3.60
2022-09-29T11:08:23.150Z,3.60
2022-09-29T11:09:23.244Z,3.30
2022-09-29T11:10:23.219Z,3.40
2022-09-29T11:11:23.138Z,3.80
2022-09-29T11:12:23.106Z,3.30
2022-09-29T11:13:23.116Z,3.50
2022-09-29T11:14:23.098Z,4.70
2022-09-29T11:15:23.103Z,3.60
2022-09-29T11:16:23.128Z,4.10
2022-09-29T11:17:23.058Z,4.20
2022-09-29T11:18:23.049Z,5.60
2022-09-29T11:19:23.033Z,3.30
2022-09-29T11:20:23.012Z,4.00
2022-09-29T11:21:24.038Z,5.00
2022-09-29T11:22:23.029Z,3.30
2022-09-29T11:23:23.005Z,3.50
2022-09-29T11:24:22.993Z,3.50
2022-09-29T11:25:23.035Z,3.10
2022-09-29T11:26:22.969Z,3.10
2022-09-29T11:27:22.964Z,3.90
2022-09-29T11:28:22.959Z,3.00
2022-09-29T11:29:22.958Z,3.10
2022-09-29T11:30:22.993Z,2.60
2022-09-29T11:31:22.936Z,3.40
2022-09-29T11:32:22.913Z,3.10
2022-09-29T11:33:22.906Z,2.70
2022-09-29T11:34:22.896Z,3.70
2022-09-29T11:35:22.881Z,3.60
2022-09-29T11:36:22.891Z,3.60
2022-09-29T11:37:22.914Z,4.30
2022-09-29T11:38:22.853Z,3.20
2022-09-29T11:39:22.846Z,2.70
2022-09-29T11:40:22.837Z,3.40
2022-09-29T11:41:22.831Z,2.70
2022-09-29T11:42:22.841Z,3.20
2022-09-29T11:43:22.800Z,3.40
2022-09-29T11:44:22.804Z,3.60
2022-09-29T11:45:22.805Z,4.00
2022-09-29T11:46:22.841Z,4.80
2022-09-29T11:47:22.791Z,5.00
2022-09-29T11:48:26.042Z,3.50
2022-09-29T11:49:22.768Z,2.60
2022-09-29T11:50:22.777Z,3.50
2022-09-29T11:51:22.763Z,2.80
2022-09-29T11:52:22.741Z,2.90
2022-09-29T11:53:22.708Z,3.70
2022-09-29T11:54:22.707Z,2.80
2022-09-29T11:55:22.689Z,4.10
2022-09-29T11:56:22.687Z,4.30
2022-09-29T11:57:22.689Z,3.60
2022-09-29T11:58:22.665Z,3.00
2022-09-29T11:59:22.659Z,5.60
2022-09-29T12:00:22.634Z,5.20
2022-09-29T12:01:22.633Z,4.20
2022-09-29T12:02:22.803Z,3.50
2022-09-29T12:03:22.635Z,3.20
2022-09-29T12:04:22.604Z,3.80
2022-09-29T12:05:22.595Z,3.80
2022-09-29T12:06:22.585Z,4.00
2022-09-29T12:07:22.602Z,3.90
2022-09-29T12:08:22.562Z,2.80
2022-09-29T12:09:22.793Z,3.00
2022-09-29T12:10:26.010Z,2.90
2022-09-29T12:11:47.420Z,2.50
2022-09-29T12:12:25.044Z,2.70
2022-09-29T12:13:23.510Z,3.10
2022-09-29T12:14:22.525Z,2.60
2022-09-29T12:15:22.527Z,2.90
2022-09-29T12:16:22.554Z,2.40
2022-09-29T12:17:22.485Z,2.90
2022-09-29T12:18:22.473Z,3.40
2022-09-29T12:19:22.466Z,4.00
2022-09-29T12:20:22.509Z,2.40
2022-09-29T12:22:22.428Z,2.80
2022-09-29T12:23:22.440Z,1.40
2022-09-29T12:24:22.423Z,4.20
2022-09-29T12:25:22.447Z,1.00
2022-09-29T12:26:22.386Z,2.60
2022-09-29T12:27:22.391Z,2.20
2022-09-29T12:28:22.381Z,2.00
2022-09-29T12:29:22.363Z,2.00
2022-09-29T12:30:22.343Z,2.40
2022-09-29T12:31:22.419Z,2.60
2022-09-29T12:32:22.342Z,1.60
2022-09-29T12:33:22.315Z,1.80
2022-09-29T12:34:22.308Z,1.10
2022-09-29T12:35:22.298Z,2.30
2022-09-29T12:36:22.313Z,0.90
2022-09-29T12:37:22.272Z,1.40
2022-09-29T12:38:22.268Z,1.10
2022-09-29T12:39:22.257Z,2.10
2022-09-29T12:40:22.239Z,2.00
2022-09-29T12:41:22.248Z,2.60
2022-09-29T12:42:22.248Z,1.80
2022-09-29T12:43:22.248Z,2.50
2022-09-29T12:44:22.203Z,2.20
2022-09-29T12:45:22.212Z,1.40
2022-09-29T12:46:22.247Z,1.90
2022-09-29T12:47:22.183Z,1.40
2022-09-29T12:48:22.186Z,2.50
2022-09-29T12:49:22.145Z,2.30
2022-09-29T12:50:22.229Z,1.00
2022-09-29T12:51:22.130Z,1.70
2022-09-29T12:52:22.146Z,1.00
2022-09-29T12:53:22.138Z,1.20
2022-09-29T12:54:22.271Z,2.50
2022-09-29T12:55:22.098Z,2.20
2022-09-29T12:56:22.116Z,1.50
2022-09-29T12:57:22.074Z,2.10
2022-09-29T12:58:22.064Z,1.20
2022-09-29T12:59:22.086Z,2.10
2022-09-29T13:00:22.044Z,1.50
2022-09-29T13:01:22.080Z,1.70
2022-09-29T13:02:22.039Z,2.00
2022-09-29T13:03:22.017Z,1.50
2022-09-29T13:04:22.075Z,2.90